Time;durP1;ratioP1;P1;durP2;ratioP2;P2;SDS_P1;SDS_P2;PMS_P1;PMS_P2;Temp;Humidity;BMP_temperature;BMP_pressure;BME280_temperature;BME280_humidity;BME280_pressure;Samples;Min_cycle;Max_cycle;Signal;HPM_P1;HPM_P2
2023/08/16 00:01:36;;;;;;;4.90;4.60;;;;;;;19.76;80.13;101568.78;4824151;29;20248;-71
2023/08/16 00:04:02;;;;;;;4.90;4.77;;;;;;;19.75;79.89;101575.22;4824670;29;20200;-71
2023/08/16 00:06:29;;;;;;;4.53;4.53;;;;;;;19.71;80.15;101574.75;4824099;29;20664;-71
2023/08/16 00:08:58;;;;;;;5.00;5.00;;;;;;;19.70;80.33;101569.50;4824041;29;20273;-71
2023/08/16 00:11:26;;;;;;;5.50;5.10;;;;;;;19.66;80.08;101577.19;4824108;29;20195;-71
2023/08/16 00:13:53;;;;;;;4.50;4.50;;;;;;;19.65;80.39;101572.81;4824044;29;20196;-71
2023/08/16 00:16:19;;;;;;;4.97;4.97;;;;;;;19.66;80.57;101570.94;4823957;29;20242;-73
2023/08/16 00:18:46;;;;;;;4.50;4.40;;;;;;;19.64;80.16;101571.13;4826416;29;20257;-71
2023/08/16 00:21:12;;;;;;;4.27;4.17;;;;;;;19.62;80.76;101573.19;4827624;29;20248;-71
2023/08/16 00:23:39;;;;;;;4.33;4.33;;;;;;;19.60;80.65;101567.94;4827300;29;20265;-71
2023/08/16 00:26:05;;;;;;;4.87;4.60;;;;;;;19.63;80.21;101568.59;4827294;29;20236;-71
2023/08/16 00:28:32;;;;;;;4.30;4.20;;;;;;;19.61;80.23;101572.34;4827409;29;20219;-71
2023/08/16 00:30:58;;;;;;;7.37;5.90;;;;;;;19.55;80.67;101573.13;4827432;29;20672;-71
2023/08/16 00:33:25;;;;;;;4.77;4.57;;;;;;;19.54;80.58;101567.88;4827154;29;20602;-71
2023/08/16 00:35:52;;;;;;;14.40;4.97;;;;;;;19.46;80.69;101566.13;4825782;29;20219;-71
2023/08/16 00:38:19;;;;;;;5.23;4.93;;;;;;;19.45;80.32;101563.56;4827483;29;20212;-70
2023/08/16 00:40:50;;;;;;;6.17;5.67;;;;;;;19.37;80.58;101553.66;4825716;29;20204;-70
2023/08/16 00:43:17;;;;;;;5.37;5.10;;;;;;;19.31;80.97;101557.09;4825715;29;20211;-70
2023/08/16 00:45:45;;;;;;;6.03;4.63;;;;;;;19.30;80.65;101557.31;4826924;29;20191;-70
2023/08/16 00:48:13;;;;;;;5.93;5.30;;;;;;;19.32;80.36;101561.50;4825584;29;20230;-70
2023/08/16 00:50:39;;;;;;;5.87;5.10;;;;;;;19.35;80.25;101544.84;4827102;29;20195;-70
2023/08/16 00:53:06;;;;;;;4.73;4.63;;;;;;;19.37;80.25;101553.66;4827069;29;20198;-70
2023/08/16 00:55:33;;;;;;;5.20;5.10;;;;;;;19.41;80.35;101556.81;4826956;29;20603;-71
2023/08/16 00:58:01;;;;;;;5.20;5.10;;;;;;;19.41;79.95;101549.53;4826902;29;20378;-71
2023/08/16 01:00:27;;;;;;;4.73;4.43;;;;;;;19.43;79.96;101550.22;4826711;29;20607;-71
2023/08/16 01:02:54;;;;;;;3.87;3.80;;;;;;;19.47;79.61;101553.41;4825407;29;20207;-71
2023/08/16 01:05:22;;;;;;;4.37;4.27;;;;;;;19.43;79.91;101550.22;4827423;29;20196;-71
2023/08/16 01:07:49;;;;;;;4.33;4.23;;;;;;;19.43;80.43;101542.09;4826830;29;20208;-70
2023/08/16 01:10:16;;;;;;;4.60;4.03;;;;;;;19.45;80.20;101550.88;4826540;29;20191;-71
2023/08/16 01:12:48;;;;;;;4.80;4.60;;;;;;;19.44;79.82;101560.03;4826487;29;20247;-71
2023/08/16 01:15:30;;;;;;;4.30;4.30;;;;;;;19.40;79.74;101550.56;4826765;29;20574;-71
2023/08/16 01:17:59;;;;;;;4.80;4.30;;;;;;;19.36;80.31;101551.13;4826938;29;20226;-71
2023/08/16 01:20:28;;;;;;;3.70;3.50;;;;;;;19.32;80.38;101547.09;4825187;29;20211;-71
2023/08/16 01:23:07;;;;;;;5.60;4.67;;;;;;;19.29;80.60;101548.34;4826339;29;20195;-71
2023/08/16 01:25:48;;;;;;;4.93;4.83;;;;;;;19.21;80.77;101553.00;4826621;29;20167;-71
2023/08/16 01:28:15;;;;;;;4.23;4.13;;;;;;;19.17;80.55;101555.25;4826339;29;20223;-71
2023/08/16 01:30:45;;;;;;;5.73;5.27;;;;;;;19.13;80.61;101543.97;4825646;29;20199;-71
2023/08/16 01:33:13;;;;;;;5.30;4.80;;;;;;;19.12;81.22;101544.97;4826491;29;20176;-72
2023/08/16 01:35:41;;;;;;;5.33;5.10;;;;;;;19.06;80.66;101548.44;4824856;29;20245;-72
2023/08/16 01:38:08;;;;;;;8.43;5.27;;;;;;;19.05;80.53;101548.63;4824822;29;20227;-72
2023/08/16 01:40:53;;;;;;;4.50;4.43;;;;;;;19.01;80.72;101545.44;4824765;29;20206;-72
2023/08/16 01:43:20;;;;;;;7.57;3.53;;;;;;;19.02;80.78;101544.41;4826330;29;20271;-72
2023/08/16 01:45:51;;;;;;;4.13;4.03;;;;;;;19.03;80.66;101546.09;4826285;29;20191;-72
2023/08/16 01:48:19;;;;;;;4.73;4.43;;;;;;;19.03;80.73;101546.09;4825909;29;20226;-71
2023/08/16 01:50:46;;;;;;;3.87;3.87;;;;;;;19.01;80.67;101548.13;4824695;29;20204;-71
2023/08/16 01:53:12;;;;;;;4.10;4.00;;;;;;;19.01;80.61;101550.03;4824665;29;20200;-71
2023/08/16 01:55:39;;;;;;;3.37;3.27;;;;;;;19.02;80.58;101548.97;4826315;29;20668;-71
2023/08/16 01:58:05;;;;;;;3.90;3.80;;;;;;;19.00;80.64;101540.22;4824505;29;20215;-71
2023/08/16 02:00:32;;;;;;;4.03;3.83;;;;;;;18.99;81.01;101544.78;4824567;29;20204;-72
2023/08/16 02:02:58;;;;;;;4.20;3.90;;;;;;;18.99;80.62;101544.78;4825768;29;20247;-72
2023/08/16 02:05:25;;;;;;;4.80;4.60;;;;;;;18.93;80.82;101553.66;4825731;29;20592;-72
2023/08/16 02:07:51;;;;;;;3.50;3.50;;;;;;;18.84;80.73;101543.91;4825568;29;20704;-71
2023/08/16 02:10:19;;;;;;;2.83;2.83;;;;;;;18.79;81.06;101543.66;4824409;29;20290;-72
2023/08/16 02:12:46;;;;;;;4.27;4.20;;;;;;;18.78;81.14;101546.53;4824903;29;20199;-72
2023/08/16 02:15:14;;;;;;;5.20;4.67;;;;;;;18.72;81.12;101548.13;4824309;29;20205;-72
2023/08/16 02:17:41;;;;;;;3.93;3.93;;;;;;;18.70;81.38;101542.06;4824179;29;20239;-70
2023/08/16 02:20:09;;;;;;;3.70;3.60;;;;;;;18.67;81.52;101543.25;4824233;29;20203;-70
2023/08/16 02:22:36;;;;;;;3.33;3.33;;;;;;;18.65;81.47;101542.59;4825471;29;20688;-70
2023/08/16 02:25:10;;;;;;;4.13;3.93;;;;;;;18.64;81.40;101545.50;4825714;29;20199;-70
2023/08/16 02:27:38;;;;;;;4.73;4.63;;;;;;;18.59;82.01;101546.03;4824079;29;20217;-70
2023/08/16 02:30:05;;;;;;;4.60;4.50;;;;;;;18.60;82.04;101545.03;4825322;29;20211;-71
2023/08/16 02:32:33;;;;;;;3.77;3.63;;;;;;;18.60;81.58;101545.03;4824098;29;20210;-71
2023/08/16 02:35:00;;;;;;;4.70;4.50;;;;;;;18.54;81.97;101545.75;4824074;29;20195;-71
2023/08/16 02:37:29;;;;;;;3.80;3.70;;;;;;;18.50;82.03;101533.56;4823965;29;20263;-71
2023/08/16 02:39:55;;;;;;;3.07;3.07;;;;;;;18.48;82.44;101551.03;4825222;29;20282;-70
2023/08/16 02:42:22;;;;;;;5.87;4.23;;;;;;;18.45;82.18;101549.53;4823801;29;20257;-71
2023/08/16 02:44:49;;;;;;;4.20;4.20;;;;;;;18.44;81.99;101549.72;4823897;29;20202;-71
2023/08/16 02:47:16;;;;;;;3.23;3.20;;;;;;;18.42;82.19;101551.75;4823868;29;20215;-71
2023/08/16 02:49:45;;;;;;;4.53;4.53;;;;;;;18.41;82.03;101547.38;4825088;29;20262;-71
2023/08/16 02:52:12;;;;;;;3.77;3.57;;;;;;;18.36;82.11;101549.78;4824998;29;20198;-71
2023/08/16 02:54:40;;;;;;;4.80;4.37;;;;;;;18.34;82.40;101541.00;4824985;29;20219;-71
2023/08/16 02:57:07;;;;;;;3.03;3.03;;;;;;;18.34;82.49;101538.28;4824829;29;20711;-70
2023/08/16 02:59:46;;;;;;;3.70;3.70;;;;;;;18.32;83.04;101535.78;4825196;29;20199;-70
2023/08/16 03:02:16;;;;;;;4.20;3.90;;;;;;;18.32;82.95;101537.66;4823712;29;20287;-70
2023/08/16 03:04:42;;;;;;;4.07;3.80;;;;;;;18.26;82.70;101533.78;4823614;29;20203;-70
2023/08/16 03:07:10;;;;;;;4.50;4.40;;;;;;;18.23;83.33;101535.00;4824779;29;20219;-70
2023/08/16 03:09:38;;;;;;;3.57;3.40;;;;;;;18.20;82.92;101538.06;4824776;29;20207;-70
2023/08/16 03:12:06;;;;;;;4.67;4.53;;;;;;;18.17;83.74;101533.00;4824764;29;20224;-70
2023/08/16 03:14:32;;;;;;;4.23;3.80;;;;;;;18.17;83.75;101538.44;4823460;29;20679;-70
2023/08/16 03:16:59;;;;;;;4.43;4.13;;;;;;;18.16;83.99;101539.44;4824532;29;20223;-70
2023/08/16 03:19:27;;;;;;;4.40;4.20;;;;;;;18.18;83.98;101537.41;4823422;29;20248;-70
2023/08/16 03:21:56;;;;;;;4.17;3.87;;;;;;;18.21;84.04;101547.03;4823687;29;20640;-70
2023/08/16 03:24:23;;;;;;;3.67;3.53;;;;;;;18.21;84.06;101545.16;4823348;29;20242;-70
2023/08/16 03:26:50;;;;;;;4.60;4.30;;;;;;;18.21;83.85;101550.56;4824539;29;20609;-70
2023/08/16 03:29:17;;;;;;;4.77;4.67;;;;;;;18.23;83.96;101545.84;4823309;29;20199;-70
2023/08/16 03:31:44;;;;;;;4.77;4.67;;;;;;;18.21;84.08;101545.16;4823247;29;20207;-70
2023/08/16 03:34:11;;;;;;;4.97;4.80;;;;;;;18.22;83.79;101546.84;4824023;29;20195;-70
2023/08/16 03:36:37;;;;;;;5.50;5.40;;;;;;;18.20;84.42;101543.47;4823717;29;20215;-70
2023/08/16 03:39:05;;;;;;;4.53;4.33;;;;;;;18.21;83.90;101547.88;4822978;29;20219;-70
2023/08/16 03:41:33;;;;;;;4.60;4.50;;;;;;;18.27;83.85;101559.84;4823239;29;20205;-72
2023/08/16 03:44:01;;;;;;;4.87;4.53;;;;;;;18.27;84.12;101552.56;4823159;29;20582;-72
2023/08/16 03:46:27;;;;;;;3.93;3.83;;;;;;;18.28;83.91;101550.72;4824331;29;20282;-71
2023/08/16 03:48:54;;;;;;;4.43;4.33;;;;;;;18.29;84.18;101556.97;4822992;29;20313;-70
2023/08/16 03:51:21;;;;;;;5.97;4.77;;;;;;;18.29;84.29;101562.38;4823092;29;20280;-70
2023/08/16 03:53:47;;;;;;;3.97;3.97;;;;;;;18.25;84.20;101557.31;4827178;29;20260;-70
2023/08/16 03:56:14;;;;;;;4.70;4.50;;;;;;;18.24;83.71;101554.81;4826553;29;20248;-70
2023/08/16 03:58:40;;;;;;;3.60;3.50;;;;;;;18.25;83.99;101570.00;4827779;29;20271;-70
2023/08/16 04:01:07;;;;;;;4.90;4.70;;;;;;;18.29;84.32;101567.78;4827768;29;20199;-70
2023/08/16 04:03:33;;;;;;;5.47;5.10;;;;;;;18.31;83.97;101565.72;4826524;29;20269;-70
2023/08/16 04:06:00;;;;;;;5.37;4.93;;;;;;;18.29;84.07;101565.09;4827670;29;20223;-70
2023/08/16 04:08:26;;;;;;;4.60;4.50;;;;;;;18.31;84.35;101565.72;4827564;29;20217;-70
2023/08/16 04:10:53;;;;;;;4.10;4.00;;;;;;;18.30;84.21;101562.19;4828051;29;20230;-70
2023/08/16 04:13:19;;;;;;;5.27;4.67;;;;;;;18.30;84.32;101564.88;4827838;29;20196;-70
2023/08/16 04:15:47;;;;;;;5.03;4.73;;;;;;;18.30;84.63;101564.03;4826230;29;20208;-70
2023/08/16 04:18:14;;;;;;;4.07;4.07;;;;;;;18.30;84.53;101569.44;4827538;29;20227;-70
2023/08/16 04:20:40;;;;;;;4.73;4.63;;;;;;;18.30;84.59;101570.31;4826911;29;20284;-70
2023/08/16 04:23:06;;;;;;;5.00;4.83;;;;;;;18.30;84.28;101572.16;4827325;29;20260;-70
2023/08/16 04:25:34;;;;;;;6.93;5.07;;;;;;;18.27;84.57;101574.22;4826039;29;20234;-70
2023/08/16 04:28:01;;;;;;;9.93;6.10;;;;;;;18.26;84.64;101567.13;4825917;29;20220;-70
2023/08/16 04:30:27;;;;;;;6.40;5.53;;;;;;;18.26;84.38;101568.97;4825980;29;20203;-70
2023/08/16 04:32:54;;;;;;;5.47;5.07;;;;;;;18.25;84.44;101573.56;4825907;29;20216;-70
2023/08/16 04:35:21;;;;;;;8.07;5.10;;;;;;;18.27;84.61;101573.38;4825852;29;20223;-70
2023/08/16 04:37:47;;;;;;;5.40;4.90;;;;;;;18.27;84.30;101576.09;4825711;29;20231;-70
2023/08/16 04:40:14;;;;;;;7.27;5.47;;;;;;;18.29;84.12;101584.03;4825670;29;20214;-70
2023/08/16 04:42:41;;;;;;;4.63;4.23;;;;;;;18.29;84.77;101579.44;4825740;29;20234;-70
2023/08/16 04:45:07;;;;;;;11.27;5.37;;;;;;;18.30;84.67;101583.84;4825731;29;20241;-70
2023/08/16 04:47:34;;;;;;;5.47;5.27;;;;;;;18.34;84.36;101597.84;4825648;29;20215;-70
2023/08/16 04:50:06;;;;;;;6.80;6.60;;;;;;;18.45;84.69;101614.53;4825671;29;20671;-70
2023/08/16 04:52:37;;;;;;;7.10;6.80;;;;;;;18.43;84.60;101629.25;4825665;29;20239;-70
2023/08/16 04:55:05;;;;;;;7.33;6.70;;;;;;;18.37;84.87;101635.41;4826114;29;20199;-70
2023/08/16 04:57:32;;;;;;;7.47;6.87;;;;;;;18.25;85.56;101637.66;4826082;29;20680;-71
2023/08/16 04:59:58;;;;;;;6.53;6.13;;;;;;;18.24;85.04;101631.44;4825575;29;20263;-71
2023/08/16 05:02:25;;;;;;;7.57;6.73;;;;;;;18.15;85.30;101629.81;4825515;29;20207;-71
2023/08/16 05:04:52;;;;;;;7.83;6.93;;;;;;;18.18;85.24;101615.06;4824210;29;20199;-71
2023/08/16 05:07:19;;;;;;;7.33;6.80;;;;;;;18.22;84.80;101628.06;4826513;29;20219;-71
2023/08/16 05:09:45;;;;;;;6.93;6.53;;;;;;;18.28;84.94;101637.34;4825323;29;20195;-72
2023/08/16 05:12:12;;;;;;;7.33;7.13;;;;;;;18.27;84.28;101641.91;4825274;29;20199;-72
2023/08/16 05:14:38;;;;;;;13.73;6.77;;;;;;;18.17;84.86;101648.56;4825264;29;20207;-71
2023/08/16 05:17:05;;;;;;;6.83;6.43;;;;;;;18.23;84.83;101648.69;4826614;29;20307;-71
2023/08/16 05:19:31;;;;;;;8.67;7.30;;;;;;;18.24;84.40;101653.09;4825163;29;20203;-72
2023/08/16 05:21:57;;;;;;;7.30;6.80;;;;;;;18.21;84.98;101652.59;4825158;29;20203;-72
2023/08/16 05:24:24;;;;;;;7.40;6.90;;;;;;;18.17;84.40;101654.81;4826556;29;20596;-72
2023/08/16 05:26:50;;;;;;;7.07;6.63;;;;;;;18.16;85.33;101641.47;4826483;29;20200;-71
2023/08/16 05:29:17;;;;;;;8.13;7.10;;;;;;;18.06;85.59;101649.81;4826290;29;20199;-72
2023/08/16 05:31:43;;;;;;;8.00;7.37;;;;;;;18.05;85.54;101653.53;4826206;29;20200;-72
2023/08/16 05:34:10;;;;;;;7.30;6.37;;;;;;;18.08;86.07;101661.28;4826714;29;20203;-71
2023/08/16 05:36:46;;;;;;;7.63;6.90;;;;;;;18.18;85.78;101671.91;4826307;29;20195;-71
2023/08/16 05:39:13;;;;;;;7.33;7.13;;;;;;;18.24;85.35;101669.34;4825958;29;20197;-71
2023/08/16 05:41:40;;;;;;;9.10;8.40;;;;;;;18.38;85.14;101674.97;4826071;29;20180;-71
2023/08/16 05:44:07;;;;;;;7.63;7.13;;;;;;;18.50;84.92;101673.56;4825981;29;20234;-71
2023/08/16 05:46:33;;;;;;;7.17;6.73;;;;;;;18.41;85.74;101671.94;4825971;29;20191;-71
2023/08/16 05:49:05;;;;;;;8.27;7.97;;;;;;;18.33;86.21;101664.69;4825883;29;20237;-71
2023/08/16 05:51:33;;;;;;;9.43;8.83;;;;;;;18.31;86.40;101668.59;4826404;29;20552;-71
2023/08/16 05:53:59;;;;;;;10.60;9.63;;;;;;;18.27;86.77;101658.16;4825868;29;20191;-71
2023/08/16 05:56:26;;;;;;;9.13;8.63;;;;;;;18.30;86.66;101664.22;4825870;29;20257;-71
2023/08/16 05:58:52;;;;;;;8.63;8.23;;;;;;;18.27;86.82;101649.19;4825718;29;20227;-71
2023/08/16 06:01:19;;;;;;;8.90;8.60;;;;;;;18.34;87.27;101649.28;4825734;29;20248;-72
2023/08/16 06:03:45;;;;;;;13.73;8.80;;;;;;;18.33;87.67;101651.16;4825656;29;20252;-71
2023/08/16 06:06:12;;;;;;;8.53;8.00;;;;;;;18.30;88.02;101647.97;4825988;29;20218;-72
2023/08/16 06:08:38;;;;;;;8.27;7.90;;;;;;;18.26;88.21;101647.47;4825575;29;20276;-72
2023/08/16 06:11:05;;;;;;;8.37;7.77;;;;;;;18.26;88.77;101647.47;4825595;29;20735;-72
2023/08/16 06:13:31;;;;;;;8.50;7.80;;;;;;;18.24;88.41;101658.50;4825522;29;20199;-72
2023/08/16 06:15:58;;;;;;;6.57;6.17;;;;;;;18.29;88.59;101654.41;4825365;29;20199;-72
2023/08/16 06:18:24;;;;;;;7.87;7.17;;;;;;;18.29;88.28;101654.41;4825380;29;20219;-72
2023/08/16 06:20:51;;;;;;;7.47;7.10;;;;;;;18.31;88.52;101655.06;4826037;29;20191;-72
2023/08/16 06:23:17;;;;;;;7.67;7.27;;;;;;;18.34;88.84;101655.53;4825736;29;20218;-72
2023/08/16 06:25:44;;;;;;;8.43;7.37;;;;;;;18.35;88.84;101651.81;4825910;29;20200;-72
2023/08/16 06:28:10;;;;;;;6.17;6.00;;;;;;;18.42;88.71;101650.06;4825255;29;20218;-72
2023/08/16 06:30:37;;;;;;;6.57;6.40;;;;;;;18.44;88.69;101650.75;4825641;29;20192;-71
2023/08/16 06:33:03;;;;;;;9.37;8.47;;;;;;;18.45;88.38;101655.16;4825501;29;20202;-71
2023/08/16 06:35:31;;;;;;;9.03;8.33;;;;;;;18.49;88.87;101644.78;4825246;29;20199;-72
2023/08/16 06:38:00;;;;;;;8.57;8.07;;;;;;;18.54;88.78;101645.94;4824159;29;20279;-72
2023/08/16 06:40:26;;;;;;;8.60;7.73;;;;;;;18.56;88.90;101652.03;4825074;29;20206;-72
2023/08/16 06:42:53;;;;;;;8.90;8.13;;;;;;;18.59;88.69;101654.38;4825130;29;20325;-72
2023/08/16 06:45:19;;;;;;;7.77;7.23;;;;;;;18.66;88.44;101649.09;4825129;29;20251;-72
2023/08/16 06:47:47;;;;;;;8.77;8.37;;;;;;;18.74;88.19;101648.19;4825569;29;20215;-71
2023/08/16 06:50:14;;;;;;;6.67;6.30;;;;;;;18.74;88.77;101651.72;4825303;29;20199;-70
2023/08/16 06:52:42;;;;;;;8.43;8.13;;;;;;;18.83;87.90;101652.50;4825869;29;20256;-71
2023/08/16 06:55:08;;;;;;;7.13;6.80;;;;;;;18.87;87.74;101654.66;4825002;29;20568;-72
2023/08/16 06:57:35;;;;;;;6.90;6.60;;;;;;;18.92;87.12;101651.41;4824934;29;20232;-71
2023/08/16 07:00:03;;;;;;;6.40;5.97;;;;;;;18.95;86.24;101661.88;4825183;29;20275;-72
2023/08/16 07:02:30;;;;;;;5.80;5.50;;;;;;;18.97;86.33;101663.38;4824880;29;20191;-72
2023/08/16 07:04:57;;;;;;;5.67;5.23;;;;;;;18.99;85.83;101668.63;4825287;29;20195;-72
2023/08/16 07:07:23;;;;;;;5.63;5.40;;;;;;;19.04;85.32;101664.34;4824754;29;20285;-71
2023/08/16 07:09:50;;;;;;;4.67;4.47;;;;;;;19.06;84.96;101670.41;4824776;29;20203;-71
2023/08/16 07:12:17;;;;;;;5.00;4.90;;;;;;;19.10;85.12;101684.41;4825038;29;20203;-72
2023/08/16 07:14:43;;;;;;;5.83;5.53;;;;;;;19.15;85.12;101690.97;4824998;29;20268;-72
2023/08/16 07:17:09;;;;;;;4.60;4.40;;;;;;;19.14;84.90;101683.03;4824518;29;20215;-71
2023/08/16 07:19:36;;;;;;;4.77;4.60;;;;;;;19.13;84.30;101687.63;4824946;29;20225;-72
2023/08/16 07:22:02;;;;;;;5.47;5.37;;;;;;;19.12;84.81;101682.38;4825090;29;20195;-72
2023/08/16 07:24:29;;;;;;;6.27;5.40;;;;;;;19.09;84.45;101689.03;4824634;29;20611;-72
2023/08/16 07:26:56;;;;;;;5.20;5.10;;;;;;;19.10;84.43;101690.69;4823877;29;20269;-71
2023/08/16 07:29:22;;;;;;;4.77;4.57;;;;;;;19.11;84.84;101689.66;4824474;29;20195;-71
2023/08/16 07:31:51;;;;;;;5.23;5.03;;;;;;;19.12;84.89;101691.34;4824560;29;20252;-71
2023/08/16 07:34:17;;;;;;;4.60;4.40;;;;;;;19.17;84.33;101693.53;4824460;29;20223;-71
2023/08/16 07:36:43;;;;;;;4.77;4.63;;;;;;;19.17;84.85;101694.38;4824372;29;20248;-71
2023/08/16 07:39:11;;;;;;;5.60;5.40;;;;;;;19.19;84.15;101694.16;4824242;29;20211;-72
2023/08/16 07:41:38;;;;;;;3.83;3.43;;;;;;;19.24;84.00;101686.31;4824653;29;20184;-71
2023/08/16 07:44:04;;;;;;;4.03;3.90;;;;;;;19.25;83.79;101689.88;4824401;29;20187;-71
2023/08/16 07:46:31;;;;;;;4.57;4.30;;;;;;;19.28;83.54;101692.22;4824299;29;20195;-71
2023/08/16 07:48:58;;;;;;;4.47;4.37;;;;;;;19.28;83.40;101692.22;4824256;29;20268;-71
2023/08/16 07:51:24;;;;;;;5.73;5.20;;;;;;;19.26;83.90;101692.41;4824531;29;20553;-71
2023/08/16 07:53:51;;;;;;;4.07;3.93;;;;;;;19.32;84.19;101699.78;4824310;29;20539;-71
2023/08/16 07:56:17;;;;;;;4.30;4.30;;;;;;;19.39;83.18;101706.16;4824498;29;20195;-70
2023/08/16 07:58:44;;;;;;;4.90;4.70;;;;;;;19.41;83.04;101705.97;4824009;29;20764;-71
2023/08/16 08:01:10;;;;;;;5.00;4.60;;;;;;;19.37;82.08;101708.22;4824466;29;20195;-71
2023/08/16 08:03:36;;;;;;;4.00;4.00;;;;;;;19.39;82.39;101703.44;4824386;29;20225;-71
2023/08/16 08:06:03;;;;;;;5.03;4.83;;;;;;;19.35;82.68;101709.44;4824175;29;20195;-70
2023/08/16 08:08:31;;;;;;;5.40;5.03;;;;;;;19.39;82.28;101710.75;4824055;29;20264;-72
2023/08/16 08:10:58;;;;;;;4.40;4.37;;;;;;;19.36;82.18;101708.41;4824373;29;20242;-71
2023/08/16 08:13:24;;;;;;;6.63;6.30;;;;;;;19.34;82.54;101710.47;4824055;29;20222;-71
2023/08/16 08:15:50;;;;;;;5.70;5.40;;;;;;;19.30;82.08;101701.88;4824047;29;20665;-71
2023/08/16 08:18:17;;;;;;;4.77;4.67;;;;;;;19.29;82.64;101711.03;4823825;29;20227;-72
2023/08/16 08:20:44;;;;;;;5.30;4.70;;;;;;;19.28;83.08;101709.34;4824241;29;20286;-71
2023/08/16 08:23:10;;;;;;;4.73;4.63;;;;;;;19.33;83.17;101711.50;4824250;29;20661;-71
2023/08/16 08:25:42;;;;;;;4.20;4.20;;;;;;;19.29;83.09;101718.31;4824179;29;20577;-71
2023/08/16 08:28:09;;;;;;;4.20;3.90;;;;;;;19.28;82.61;101717.47;4824186;29;20218;-70
2023/08/16 08:30:35;;;;;;;4.30;4.20;;;;;;;19.17;82.68;101718.78;4824207;29;20209;-70
2023/08/16 08:33:02;;;;;;;3.97;3.73;;;;;;;19.17;82.59;101724.19;4824202;29;20196;-71
2023/08/16 08:35:28;;;;;;;4.70;4.40;;;;;;;19.17;83.15;101723.34;4824618;29;20196;-71
2023/08/16 08:37:54;;;;;;;4.67;4.57;;;;;;;19.21;83.08;101719.22;4823981;29;20312;-71
2023/08/16 08:40:21;;;;;;;4.27;3.97;;;;;;;19.20;82.96;101730.25;4827024;29;20679;-70
2023/08/16 08:42:48;;;;;;;4.20;3.90;;;;;;;19.17;83.56;101736.91;4827249;29;20656;-71
2023/08/16 08:45:15;;;;;;;4.00;3.80;;;;;;;19.21;82.87;101732.78;4826964;29;20207;-71
2023/08/16 08:47:43;;;;;;;3.50;3.50;;;;;;;19.17;83.36;101734.19;4827040;29;20249;-71
2023/08/16 08:50:10;;;;;;;4.77;4.67;;;;;;;19.17;83.23;101743.16;4827419;29;20195;-71
2023/08/16 08:52:37;;;;;;;5.57;4.57;;;;;;;19.16;83.49;101740.63;4827123;29;20199;-71
2023/08/16 08:55:03;;;;;;;5.43;4.50;;;;;;;19.18;83.07;101747.53;4827648;29;20196;-71
2023/08/16 08:57:32;;;;;;;5.20;4.87;;;;;;;19.18;83.29;101741.28;4826868;29;20219;-72
2023/08/16 09:00:00;;;;;;;4.53;4.47;;;;;;;19.18;83.58;101735.84;4826759;29;20203;-72
2023/08/16 09:02:30;;;;;;;4.40;4.40;;;;;;;19.18;83.98;101733.97;4826713;29;20191;-72
2023/08/16 09:05:02;;;;;;;4.23;4.23;;;;;;;19.18;83.56;101735.84;4826680;29;20278;-72
2023/08/16 09:07:32;;;;;;;3.77;3.60;;;;;;;19.18;83.80;101733.97;4826919;29;20710;-71
2023/08/16 09:09:59;;;;;;;4.63;4.50;;;;;;;19.16;83.92;101732.50;4826591;29;20191;-72
2023/08/16 09:12:26;;;;;;;4.00;3.90;;;;;;;19.15;84.29;101747.06;4826529;29;20217;-71
2023/08/16 09:14:52;;;;;;;4.40;4.30;;;;;;;19.17;84.15;101748.59;4826531;29;20188;-72
2023/08/16 09:17:19;;;;;;;5.10;4.77;;;;;;;19.13;84.73;101747.28;4826390;29;20223;-72
2023/08/16 09:19:45;;;;;;;4.97;4.77;;;;;;;19.18;84.78;101746.69;4826625;29;20630;-72
2023/08/16 09:22:12;;;;;;;4.97;4.67;;;;;;;19.15;84.37;101744.34;4826630;29;20198;-72
2023/08/16 09:24:43;;;;;;;4.93;4.73;;;;;;;19.15;84.33;101745.19;4826337;29;20199;-72
2023/08/16 09:27:10;;;;;;;4.50;4.50;;;;;;;19.13;84.73;101743.72;4826706;29;20226;-71
2023/08/16 09:29:40;;;;;;;5.67;5.20;;;;;;;19.12;85.03;101737.44;4826266;29;20299;-72
2023/08/16 09:32:08;;;;;;;5.37;5.17;;;;;;;19.12;84.93;101734.72;4826468;29;20196;-72
2023/08/16 09:34:43;;;;;;;4.07;4.03;;;;;;;19.15;84.88;101742.50;4826505;29;20179;-72
2023/08/16 09:37:13;;;;;;;6.20;5.83;;;;;;;19.18;84.87;101741.28;4826339;29;20218;-72
2023/08/16 09:39:39;;;;;;;5.00;4.90;;;;;;;19.16;85.64;101736.06;4825931;29;20283;-72
2023/08/16 09:42:10;;;;;;;6.60;4.93;;;;;;;19.21;85.11;101742.78;4826579;29;20613;-72
2023/08/16 09:44:37;;;;;;;5.70;5.30;;;;;;;19.24;85.75;101731.56;4826621;29;20195;-72
2023/08/16 09:47:13;;;;;;;6.33;6.10;;;;;;;19.31;86.49;101735.25;4825953;29;20219;-71
2023/08/16 09:49:44;;;;;;;6.83;6.20;;;;;;;19.33;86.26;101736.75;4825904;29;20648;-72
2023/08/16 09:52:11;;;;;;;7.17;6.67;;;;;;;19.35;86.28;101742.81;4825649;29;20248;-72
2023/08/16 09:54:40;;;;;;;6.07;5.67;;;;;;;19.41;86.98;101752.09;4825866;29;20282;-72
2023/08/16 09:57:07;;;;;;;8.03;7.73;;;;;;;19.46;87.04;101755.97;4826008;29;20230;-71
2023/08/16 09:59:37;;;;;;;7.07;6.50;;;;;;;19.46;86.42;101752.41;4825751;29;20218;-72
2023/08/16 10:02:11;;;;;;;8.77;8.03;;;;;;;19.54;86.16;101749.63;4826078;29;20188;-72
2023/08/16 10:04:40;;;;;;;8.20;7.70;;;;;;;19.45;86.56;101739.88;4826293;29;20213;-71
2023/08/16 10:07:10;;;;;;;7.33;7.03;;;;;;;19.44;87.02;101728.19;4825907;29;20226;-71
2023/08/16 10:09:43;;;;;;;6.70;6.40;;;;;;;19.47;87.30;101738.69;4826011;29;20633;-71
2023/08/16 10:12:10;;;;;;;7.87;7.20;;;;;;;19.56;86.67;101737.53;4825991;29;20179;-71
2023/08/16 10:14:38;;;;;;;6.63;6.27;;;;;;;19.55;86.51;101737.75;4825904;29;20180;-71
2023/08/16 10:17:08;;;;;;;7.90;7.23;;;;;;;19.60;85.92;101735.31;4826266;29;20631;-71
2023/08/16 10:19:37;;;;;;;7.07;6.60;;;;;;;19.62;85.81;101730.53;4825451;29;20275;-72
2023/08/16 10:22:16;;;;;;;6.10;5.70;;;;;;;19.66;84.95;101731.84;4825443;29;20202;-72
2023/08/16 10:25:06;;;;;;;5.97;5.67;;;;;;;19.67;84.83;101735.41;4825515;29;20275;-71
2023/08/16 10:27:36;;;;;;;15.33;8.23;;;;;;;19.65;84.42;101732.88;4825697;29;20226;-71
2023/08/16 10:30:07;;;;;;;4.90;4.90;;;;;;;19.70;84.09;101724.16;4825343;29;20244;-71
2023/08/16 10:32:40;;;;;;;7.53;7.03;;;;;;;19.68;83.60;101737.94;4825422;29;20188;-71
2023/08/16 10:35:08;;;;;;;5.30;5.13;;;;;;;19.70;83.90;101741.28;4825535;29;20266;-71
2023/08/16 10:37:35;;;;;;;6.50;6.37;;;;;;;19.73;83.54;101746.34;4825173;29;20284;-71
2023/08/16 10:40:17;;;;;;;6.03;5.67;;;;;;;19.75;83.46;101747.00;4825395;29;20691;-71
2023/08/16 10:43:03;;;;;;;6.47;6.17;;;;;;;19.75;83.37;101740.75;4825712;29;20624;-72
2023/08/16 10:45:34;;;;;;;6.90;6.40;;;;;;;19.77;83.32;101738.69;4825671;29;20247;-72
2023/08/16 10:48:09;;;;;;;7.77;6.57;;;;;;;19.75;83.75;101732.59;4825152;29;20218;-71
2023/08/16 10:50:36;;;;;;;6.83;6.50;;;;;;;19.76;83.00;101731.56;4825625;29;20237;-71
2023/08/16 10:53:04;;;;;;;6.90;6.37;;;;;;;19.73;83.20;101738.19;4825043;29;20574;-70
2023/08/16 10:55:31;;;;;;;8.30;6.30;;;;;;;19.71;82.72;101744.84;4825053;29;20191;-70
2023/08/16 10:57:57;;;;;;;7.40;6.93;;;;;;;19.74;83.25;101747.19;4825217;29;20211;-71
2023/08/16 11:00:35;;;;;;;6.10;5.70;;;;;;;19.75;82.78;101740.75;4825201;29;20260;-70
2023/08/16 11:03:04;;;;;;;5.47;5.37;;;;;;;19.79;83.18;101740.19;4825418;29;20183;-71
2023/08/16 11:05:33;;;;;;;7.20;6.80;;;;;;;19.80;83.17;101738.31;4824864;29;20192;-71
2023/08/16 11:08:01;;;;;;;7.00;5.80;;;;;;;19.79;83.37;101742.88;4824807;29;20215;-70
2023/08/16 11:10:37;;;;;;;6.60;6.07;;;;;;;19.82;83.61;101742.50;4824810;29;20251;-72
2023/08/16 11:13:10;;;;;;;6.80;6.53;;;;;;;19.83;82.95;101743.34;4824742;29;20199;-71
2023/08/16 11:15:40;;;;;;;7.27;6.60;;;;;;;19.90;82.80;101747.84;4825004;29;20628;-72
2023/08/16 11:18:06;;;;;;;6.47;6.17;;;;;;;19.91;82.62;101741.38;4824461;29;20219;-71
2023/08/16 11:20:36;;;;;;;6.03;5.60;;;;;;;20.05;82.29;101742.41;4825211;29;20191;-72
2023/08/16 11:23:03;;;;;;;6.27;6.07;;;;;;;20.11;82.57;101740.81;4824916;29;20206;-71
2023/08/16 11:25:34;;;;;;;6.43;6.13;;;;;;;20.19;81.84;101735.28;4824878;29;20252;-70
2023/08/16 11:28:04;;;;;;;6.33;6.13;;;;;;;20.25;81.19;101737.22;4824844;29;20586;-71